Time,TemperatureF,DewpointF,PressureIn,WindDirection,WindDirectionDegrees,WindSpeedMPH,WindSpeedGustMPH,Humidity,HourlyPrecipIn,Conditions,Clouds,dailyrainin,SoftwareType,DateUTC
2013-02-19 00:11:00,28.4,14.0,30.23,SE,125,0.0,0.0,54,0.00,,,0.00,weatherlink.com 1.10,2013-02-19 05:11:00,
2013-02-19 00:26:00,27.9,15.0,30.23,WSW,249,0.0,2.0,58,0.00,,,0.00,weatherlink.com 1.10,2013-02-19 05:26:00,
2013-02-19 00:41:00,27.5,14.0,30.23,WSW,249,0.0,0.0,58,0.00,,,0.00,weatherlink.com 1.10,2013-02-19 05:41:00,
2013-02-19 00:56:00,27.6,14.0,30.22,WSW,249,0.0,0.0,58,0.00,,,0.00,weatherlink.com 1.10,2013-02-19 05:56:00,
2013-02-19 01:11:00,27.3,15.0,30.22,WSW,248,0.0,0.0,59,0.00,,,0.00,weatherlink.com 1.10,2013-02-19 06:11:00,
2013-02-19 01:26:00,26.7,14.0,30.21,WSW,248,0.0,0.0,59,0.00,,,0.00,weatherlink.com 1.10,2013-02-19 06:26:00,
2013-02-19 01:41:00,26.9,15.0,30.21,SE,131,0.0,3.0,60,0.00,,,0.00,weatherlink.com 1.10,2013-02-19 06:41:00,
2013-02-19 01:56:00,26.9,15.0,30.21,SW,229,1.0,3.0,61,0.00,,,0.00,weatherlink.com 1.10,2013-02-19 06:56:00,
2013-02-19 02:11:00,26.9,15.0,30.20,ENE,74,0.0,3.0,62,0.00,,,0.00,weatherlink.com 1.10,2013-02-19 07:11:00,
2013-02-19 02:26:00,26.4,15.0,30.20,SSW,200,0.0,2.0,62,0.00,,,0.00,weatherlink.com 1.10,2013-02-19 07:26:00,
2013-02-19 02:41:00,26.3,15.0,30.19,SSW,210,0.0,1.0,62,0.00,,,0.00,weatherlink.com 1.10,2013-02-19 07:41:00,
2013-02-19 02:56:00,26.0,15.0,30.18,SE,134,0.0,2.0,63,0.00,,,0.00,weatherlink.com 1.10,2013-02-19 07:56:00,
2013-02-19 03:11:00,25.6,15.0,30.17,SE,134,0.0,1.0,64,0.00,,,0.00,weatherlink.com 1.10,2013-02-19 08:11:00,
2013-02-19 03:26:00,25.2,15.0,30.17,SE,134,0.0,0.0,64,0.00,,,0.00,weatherlink.com 1.10,2013-02-19 08:26:00,
2013-02-19 03:41:00,25.4,15.0,30.17,SE,134,0.0,0.0,65,0.00,,,0.00,weatherlink.com 1.10,2013-02-19 08:41:00,
2013-02-19 03:56:00,25.1,15.0,30.17,SE,134,0.0,0.0,66,0.00,,,0.00,weatherlink.com 1.10,2013-02-19 08:56:00,
2013-02-19 04:11:00,25.0,15.0,30.17,SE,134,0.0,0.0,66,0.00,,,0.00,weatherlink.com 1.10,2013-02-19 09:11:00,
2013-02-19 04:26:00,24.7,15.0,30.17,SE,134,0.0,0.0,67,0.00,,,0.00,weatherlink.com 1.10,2013-02-19 09:26:00,
2013-02-19 04:41:00,24.7,15.0,30.16,SE,134,0.0,0.0,68,0.00,,,0.00,weatherlink.com 1.10,2013-02-19 09:41:00,
2013-02-19 04:56:00,24.3,15.0,30.16,SE,134,0.0,0.0,69,0.00,,,0.00,weatherlink.com 1.10,2013-02-19 09:56:00,
2013-02-19 05:11:00,23.5,15.0,30.15,SE,134,0.0,0.0,71,0.00,,,0.00,weatherlink.com 1.10,2013-02-19 10:11:00,
2013-02-19 05:26:00,23.4,16.0,30.14,SE,134,0.0,0.0,72,0.00,,,0.00,weatherlink.com 1.10,2013-02-19 10:26:00,
2013-02-19 05:42:00,23.1,16.0,30.13,SE,134,0.0,1.0,73,0.00,,,0.00,weatherlink.com 1.10,2013-02-19 10:42:00,
2013-02-19 05:56:00,23.2,16.0,30.12,SE,134,0.0,0.0,73,0.00,,,0.00,weatherlink.com 1.10,2013-02-19 10:56:00,
2013-02-19 06:12:00,23.2,16.0,30.11,SE,133,0.0,0.0,73,0.00,,,0.00,weatherlink.com 1.10,2013-02-19 11:12:00,
2013-02-19 06:27:00,23.2,15.0,30.11,SE,133,0.0,0.0,72,0.00,,,0.00,weatherlink.com 1.10,2013-02-19 11:27:00,
2013-02-19 06:42:00,22.7,16.0,30.12,SE,132,0.0,0.0,74,0.00,,,0.00,weatherlink.com 1.10,2013-02-19 11:42:00,
2013-02-19 06:57:00,23.2,16.0,30.11,SE,133,0.0,1.0,73,0.00,,,0.00,weatherlink.com 1.10,2013-02-19 11:57:00,
2013-02-19 07:12:00,23.5,16.0,30.10,SE,132,0.0,0.0,74,0.00,,,0.00,weatherlink.com 1.10,2013-02-19 12:12:00,
2013-02-19 07:27:00,23.7,17.0,30.11,SE,132,0.0,0.0,75,0.00,,,0.00,weatherlink.com 1.10,2013-02-19 12:27:00,
2013-02-19 07:42:00,26.0,17.0,30.11,SE,133,0.0,0.0,69,0.00,,,0.00,weatherlink.com 1.10,2013-02-19 12:42:00,
2013-02-19 07:57:00,27.9,18.0,30.11,SE,133,0.0,0.0,67,0.00,,,0.00,weatherlink.com 1.10,2013-02-19 12:57:00,
2013-02-19 08:12:00,29.7,19.0,30.10,SE,137,0.0,2.0,65,0.00,,,0.00,weatherlink.com 1.10,2013-02-19 13:12:00,
2013-02-19 08:27:00,31.3,20.0,30.09,SE,125,0.0,2.0,63,0.00,,,0.00,weatherlink.com 1.10,2013-02-19 13:27:00,
2013-02-19 08:42:00,32.8,21.0,30.07,SSW,208,1.0,2.0,63,0.00,,,0.00,weatherlink.com 1.10,2013-02-19 13:42:00,
2013-02-19 08:57:00,33.8,23.0,30.07,SSE,156,0.0,3.0,64,0.00,,,0.00,weatherlink.com 1.10,2013-02-19 13:57:00,
2013-02-19 09:12:00,34.7,23.0,30.06,SE,137,0.0,4.0,63,0.00,,,0.00,weatherlink.com 1.10,2013-02-19 14:12:00,
2013-02-19 09:27:00,35.4,24.0,30.06,South,169,2.0,5.0,63,0.00,,,0.00,weatherlink.com 1.10,2013-02-19 14:27:00,
2013-02-19 09:42:00,36.6,24.0,30.05,East,95,2.0,2.0,60,0.00,,,0.00,weatherlink.com 1.10,2013-02-19 14:42:00,
2013-02-19 09:57:00,37.0,25.0,30.04,SSE,158,0.0,5.0,61,0.00,,,0.00,weatherlink.com 1.10,2013-02-19 14:57:00,
2013-02-19 10:12:00,37.8,25.0,30.03,ESE,110,1.0,6.0,61,0.00,,,0.00,weatherlink.com 1.10,2013-02-19 15:12:00,
2013-02-19 10:27:00,38.9,25.0,30.02,ESE,110,1.0,8.0,59,0.00,,,0.00,weatherlink.com 1.10,2013-02-19 15:27:00,
2013-02-19 10:42:00,39.7,26.0,30.00,East,94,1.0,6.0,58,0.00,,,0.00,weatherlink.com 1.10,2013-02-19 15:42:00,
2013-02-19 10:57:00,40.7,26.0,30.01,SSE,160,0.0,5.0,57,0.00,,,0.00,weatherlink.com 1.10,2013-02-19 15:57:00,
2013-02-19 11:13:00,42.0,27.0,30.01,South,176,3.0,13.0,56,0.00,,,0.00,weatherlink.com 1.10,2013-02-19 16:13:00,
2013-02-19 11:28:00,42.6,27.0,30.00,SE,142,3.0,11.0,54,0.00,,,0.00,weatherlink.com 1.10,2013-02-19 16:28:00,
2013-02-19 11:43:00,43.5,27.0,29.99,SE,132,1.0,9.0,52,0.00,,,0.00,weatherlink.com 1.10,2013-02-19 16:43:00,
2013-02-19 11:58:00,44.0,27.0,29.96,SSE,150,2.0,8.0,52,0.00,,,0.00,weatherlink.com 1.10,2013-02-19 16:58:00,
2013-02-19 12:13:00,44.4,28.0,29.95,SE,142,0.0,10.0,52,0.00,,,0.00,weatherlink.com 1.10,2013-02-19 17:13:00,
2013-02-19 12:28:00,44.7,28.0,29.95,South,183,6.0,9.0,53,0.00,,,0.00,weatherlink.com 1.10,2013-02-19 17:28:00,
2013-02-19 12:43:00,44.7,29.0,29.95,South,169,6.0,11.0,55,0.00,,,0.00,weatherlink.com 1.10,2013-02-19 17:43:00,
2013-02-19 12:58:00,42.6,35.0,29.94,SE,136,7.0,24.0,74,0.00,,,0.00,weatherlink.com 1.10,2013-02-19 17:58:00,
2013-02-19 13:13:00,40.3,36.0,29.93,South,174,4.0,14.0,84,0.03,,,0.03,weatherlink.com 1.10,2013-02-19 18:13:00,
2013-02-19 13:28:00,39.8,37.0,29.91,SSE,154,6.0,11.0,88,0.06,,,0.06,weatherlink.com 1.10,2013-02-19 18:28:00,
2013-02-19 13:43:00,39.7,37.0,29.89,SSW,203,4.0,9.0,88,0.06,,,0.06,weatherlink.com 1.10,2013-02-19 18:43:00,
2013-02-19 13:58:00,39.8,37.0,29.89,SE,138,2.0,10.0,90,0.08,,,0.08,weatherlink.com 1.10,2013-02-19 18:58:00,
2013-02-19 14:13:00,39.9,38.0,29.88,SW,224,2.0,8.0,91,0.05,,,0.09,weatherlink.com 1.10,2013-02-19 19:13:00,
2013-02-19 14:28:00,39.8,38.0,29.87,SSE,148,1.0,4.0,92,0.04,,,0.10,weatherlink.com 1.10,2013-02-19 19:28:00,
2013-02-19 14:44:00,39.9,38.0,29.86,SSW,203,0.0,1.0,93,0.05,,,0.11,weatherlink.com 1.10,2013-02-19 19:44:00,
2013-02-19 14:58:00,40.0,38.0,29.84,ESE,102,0.0,5.0,93,0.04,,,0.12,weatherlink.com 1.10,2013-02-19 19:58:00,
2013-02-19 15:13:00,40.1,39.0,29.83,SE,141,0.0,2.0,94,0.04,,,0.13,weatherlink.com 1.10,2013-02-19 20:13:00,
2013-02-19 15:28:00,40.2,39.0,29.81,SE,135,1.0,2.0,94,0.04,,,0.14,weatherlink.com 1.10,2013-02-19 20:28:00,
2013-02-19 15:43:00,40.2,39.0,29.80,SE,146,0.0,2.0,94,0.04,,,0.15,weatherlink.com 1.10,2013-02-19 20:43:00,
2013-02-19 15:58:00,40.1,39.0,29.79,SE,146,0.0,1.0,94,0.04,,,0.16,weatherlink.com 1.10,2013-02-19 20:58:00,
2013-02-19 16:13:00,40.2,39.0,29.77,East,92,2.0,7.0,96,0.04,,,0.17,weatherlink.com 1.10,2013-02-19 21:13:00,
2013-02-19 16:29:00,40.5,39.0,29.77,SE,146,0.0,3.0,95,0.05,,,0.19,weatherlink.com 1.10,2013-02-19 21:29:00,
2013-02-19 16:44:00,41.1,40.0,29.77,SW,222,0.0,5.0,95,0.05,,,0.20,weatherlink.com 1.10,2013-02-19 21:44:00,
2013-02-19 16:59:00,41.1,40.0,29.76,WSW,240,1.0,3.0,95,0.05,,,0.21,weatherlink.com 1.10,2013-02-19 21:59:00,
2013-02-19 17:14:00,40.9,40.0,29.76,SW,222,0.0,2.0,95,0.05,,,0.22,weatherlink.com 1.10,2013-02-19 22:14:00,
2013-02-19 17:29:00,40.6,39.0,29.75,West,276,0.0,1.0,95,0.04,,,0.23,weatherlink.com 1.10,2013-02-19 22:29:00,
2013-02-19 17:44:00,40.9,40.0,29.75,SE,140,0.0,4.0,96,0.03,,,0.23,weatherlink.com 1.10,2013-02-19 22:44:00,
2013-02-19 17:59:00,40.7,40.0,29.75,SSE,163,0.0,2.0,96,0.04,,,0.25,weatherlink.com 1.10,2013-02-19 22:59:00,
2013-02-19 18:14:00,40.8,40.0,29.74,SW,226,1.0,4.0,96,0.04,,,0.26,weatherlink.com 1.10,2013-02-19 23:14:00,
2013-02-19 18:29:00,41.0,40.0,29.73,SSE,160,1.0,4.0,96,0.04,,,0.27,weatherlink.com 1.10,2013-02-19 23:29:00,
2013-02-19 18:44:00,41.0,40.0,29.73,SSE,158,0.0,4.0,96,0.04,,,0.27,weatherlink.com 1.10,2013-02-19 23:44:00,
2013-02-19 18:59:00,41.1,40.0,29.73,South,176,1.0,5.0,96,0.03,,,0.28,weatherlink.com 1.10,2013-02-19 23:59:00,
2013-02-19 19:14:00,41.1,40.0,29.73,WNW,291,2.0,3.0,96,0.02,,,0.28,weatherlink.com 1.10,2013-02-20 00:14:00,
2013-02-19 19:29:00,41.1,40.0,29.72,SW,236,0.0,3.0,96,0.01,,,0.28,weatherlink.com 1.10,2013-02-20 00:29:00,
2013-02-19 19:44:00,41.0,40.0,29.71,WSW,256,0.0,2.0,96,0.01,,,0.28,weatherlink.com 1.10,2013-02-20 00:44:00,
2013-02-19 19:59:00,40.9,40.0,29.71,SW,221,0.0,5.0,96,0.00,,,0.28,weatherlink.com 1.10,2013-02-20 00:59:00,
2013-02-19 20:14:00,40.9,40.0,29.71,West,266,4.0,7.0,96,0.00,,,0.28,weatherlink.com 1.10,2013-02-20 01:14:00,
2013-02-19 20:29:00,40.8,40.0,29.71,WSW,239,1.0,6.0,96,0.00,,,0.28,weatherlink.com 1.10,2013-02-20 01:29:00,
2013-02-19 20:44:00,40.6,39.0,29.71,NW,304,4.0,9.0,94,0.01,,,0.29,weatherlink.com 1.10,2013-02-20 01:44:00,
2013-02-19 20:59:00,40.5,39.0,29.71,West,270,1.0,5.0,93,0.01,,,0.29,weatherlink.com 1.10,2013-02-20 01:59:00,
2013-02-19 21:14:00,40.4,38.0,29.71,SE,140,1.0,8.0,92,0.01,,,0.29,weatherlink.com 1.10,2013-02-20 02:14:00,
2013-02-19 21:29:00,40.2,37.0,29.71,West,276,3.0,9.0,89,0.01,,,0.29,weatherlink.com 1.10,2013-02-20 02:29:00,
2013-02-19 21:44:00,39.8,37.0,29.72,WSW,249,5.0,8.0,88,0.00,,,0.29,weatherlink.com 1.10,2013-02-20 02:44:00,
2013-02-19 21:59:00,39.4,35.0,29.71,West,269,3.0,11.0,84,0.00,,,0.29,weatherlink.com 1.10,2013-02-20 02:59:00,
2013-02-19 22:14:00,39.1,34.0,29.72,WNW,285,2.0,13.0,82,0.00,,,0.29,weatherlink.com 1.10,2013-02-20 03:14:00,
2013-02-19 22:29:00,38.7,32.0,29.72,West,281,12.0,15.0,78,0.00,,,0.29,weatherlink.com 1.10,2013-02-20 03:29:00,
2013-02-19 22:44:00,38.5,31.0,29.72,West,276,3.0,13.0,74,0.00,,,0.29,weatherlink.com 1.10,2013-02-20 03:44:00,
2013-02-19 22:59:00,38.1,29.0,29.72,South,191,6.0,14.0,70,0.00,,,0.29,weatherlink.com 1.10,2013-02-20 03:59:00,
2013-02-19 23:14:00,37.7,27.0,29.73,WSW,238,5.0,15.0,66,0.00,,,0.29,weatherlink.com 1.10,2013-02-20 04:14:00,
2013-02-19 23:29:00,37.1,26.0,29.73,West,269,2.0,17.0,65,0.00,,,0.29,weatherlink.com 1.10,2013-02-20 04:29:00,
2013-02-19 23:44:00,36.7,25.0,29.73,West,260,7.0,21.0,62,0.00,,,0.29,weatherlink.com 1.10,2013-02-20 04:44:00,
2013-02-19 23:59:00,36.4,21.0,29.73,West,280,12.0,20.0,55,0.00,,,0.29,weatherlink.com 1.10,2013-02-20 04:59:00,